sensor_id;sensor_type;location;lat;lon;timestamp;temperature;humidity
70079;DHT22;57451;52.496;13.456;2022-07-17T00:01:36;16.00;51.00
70079;DHT22;57451;52.496;13.456;2022-07-17T00:04:04;16.00;51.00
70079;DHT22;57451;52.496;13.456;2022-07-17T00:06:30;15.90;50.80
70079;DHT22;57451;52.496;13.456;2022-07-17T00:08:56;16.00;50.90
70079;DHT22;57451;52.496;13.456;2022-07-17T00:11:22;16.00;50.90
70079;DHT22;57451;52.496;13.456;2022-07-17T00:13:48;15.90;51.20
70079;DHT22;57451;52.496;13.456;2022-07-17T00:16:14;15.90;51.00
70079;DHT22;57451;52.496;13.456;2022-07-17T00:18:41;15.90;51.20
70079;DHT22;57451;52.496;13.456;2022-07-17T00:21:08;15.80;51.10
70079;DHT22;57451;52.496;13.456;2022-07-17T00:23:34;15.80;51.00
70079;DHT22;57451;52.496;13.456;2022-07-17T00:26:00;15.80;51.40
70079;DHT22;57451;52.496;13.456;2022-07-17T00:28:27;15.80;51.50
70079;DHT22;57451;52.496;13.456;2022-07-17T00:30:53;15.70;51.30
70079;DHT22;57451;52.496;13.456;2022-07-17T00:33:19;15.70;51.30
70079;DHT22;57451;52.496;13.456;2022-07-17T00:35:45;15.70;52.00
70079;DHT22;57451;52.496;13.456;2022-07-17T00:38:12;15.70;51.80
70079;DHT22;57451;52.496;13.456;2022-07-17T00:40:39;15.60;52.00
70079;DHT22;57451;52.496;13.456;2022-07-17T00:43:05;15.60;52.10
70079;DHT22;57451;52.496;13.456;2022-07-17T00:45:32;15.50;52.00
70079;DHT22;57451;52.496;13.456;2022-07-17T00:47:59;15.50;51.90
70079;DHT22;57451;52.496;13.456;2022-07-17T00:50:28;15.50;52.00
70079;DHT22;57451;52.496;13.456;2022-07-17T00:52:55;15.50;51.90
70079;DHT22;57451;52.496;13.456;2022-07-17T00:55:24;15.40;52.30
70079;DHT22;57451;52.496;13.456;2022-07-17T00:57:51;15.40;52.60
70079;DHT22;57451;52.496;13.456;2022-07-17T01:00:21;15.40;52.60
70079;DHT22;57451;52.496;13.456;2022-07-17T01:02:50;15.30;52.20
70079;DHT22;57451;52.496;13.456;2022-07-17T01:05:17;15.30;52.70
70079;DHT22;57451;52.496;13.456;2022-07-17T01:07:44;15.30;52.50
70079;DHT22;57451;52.496;13.456;2022-07-17T01:10:11;15.30;52.70
70079;DHT22;57451;52.496;13.456;2022-07-17T01:12:39;15.30;52.20
70079;DHT22;57451;52.496;13.456;2022-07-17T01:15:08;15.30;53.10
70079;DHT22;57451;52.496;13.456;2022-07-17T01:17:35;15.20;52.30
70079;DHT22;57451;52.496;13.456;2022-07-17T01:20:05;15.20;52.90
70079;DHT22;57451;52.496;13.456;2022-07-17T01:22:40;15.20;52.70
70079;DHT22;57451;52.496;13.456;2022-07-17T01:25:07;15.20;52.70
70079;DHT22;57451;52.496;13.456;2022-07-17T01:27:33;15.20;52.80
70079;DHT22;57451;52.496;13.456;2022-07-17T01:29:59;15.10;52.80
70079;DHT22;57451;52.496;13.456;2022-07-17T01:32:31;15.00;52.90
70079;DHT22;57451;52.496;13.456;2022-07-17T01:34:57;15.00;53.40
70079;DHT22;57451;52.496;13.456;2022-07-17T01:37:23;15.00;53.70
70079;DHT22;57451;52.496;13.456;2022-07-17T01:39:51;15.00;53.50
70079;DHT22;57451;52.496;13.456;2022-07-17T01:42:20;15.00;53.60
70079;DHT22;57451;52.496;13.456;2022-07-17T01:44:47;14.90;53.20
70079;DHT22;57451;52.496;13.456;2022-07-17T01:47:14;14.90;53.90
70079;DHT22;57451;52.496;13.456;2022-07-17T01:49:44;14.90;53.60
70079;DHT22;57451;52.496;13.456;2022-07-17T01:52:10;14.90;53.70
70079;DHT22;57451;52.496;13.456;2022-07-17T01:54:36;14.80;53.30
70079;DHT22;57451;52.496;13.456;2022-07-17T01:57:04;14.80;53.40
70079;DHT22;57451;52.496;13.456;2022-07-17T01:59:30;14.80;53.50
70079;DHT22;57451;52.496;13.456;2022-07-17T02:01:56;14.80;54.10
70079;DHT22;57451;52.496;13.456;2022-07-17T02:04:22;14.80;53.50
70079;DHT22;57451;52.496;13.456;2022-07-17T02:06:48;14.80;53.20
70079;DHT22;57451;52.496;13.456;2022-07-17T02:09:14;14.70;53.40
70079;DHT22;57451;52.496;13.456;2022-07-17T02:11:40;14.70;53.30
70079;DHT22;57451;52.496;13.456;2022-07-17T02:14:08;14.70;53.20
70079;DHT22;57451;52.496;13.456;2022-07-17T02:16:34;14.60;53.20
70079;DHT22;57451;52.496;13.456;2022-07-17T02:19:00;14.60;53.80
70079;DHT22;57451;52.496;13.456;2022-07-17T02:21:26;14.60;54.10
70079;DHT22;57451;52.496;13.456;2022-07-17T02:23:52;14.50;53.50
70079;DHT22;57451;52.496;13.456;2022-07-17T02:26:18;14.50;54.30
70079;DHT22;57451;52.496;13.456;2022-07-17T02:28:45;14.50;53.60
70079;DHT22;57451;52.496;13.456;2022-07-17T02:31:12;14.40;54.10
70079;DHT22;57451;52.496;13.456;2022-07-17T02:33:38;14.40;54.30
70079;DHT22;57451;52.496;13.456;2022-07-17T02:36:05;14.40;53.80
70079;DHT22;57451;52.496;13.456;2022-07-17T02:38:32;14.40;54.50
70079;DHT22;57451;52.496;13.456;2022-07-17T02:40:58;14.30;54.20
70079;DHT22;57451;52.496;13.456;2022-07-17T02:43:24;14.30;54.30
70079;DHT22;57451;52.496;13.456;2022-07-17T02:45:51;14.20;54.40
70079;DHT22;57451;52.496;13.456;2022-07-17T02:48:18;14.20;54.80
70079;DHT22;57451;52.496;13.456;2022-07-17T02:50:44;14.10;54.50
70079;DHT22;57451;52.496;13.456;2022-07-17T02:53:11;14.20;55.20
70079;DHT22;57451;52.496;13.456;2022-07-17T02:55:37;14.10;55.50
70079;DHT22;57451;52.496;13.456;2022-07-17T02:58:03;14.10;54.90
70079;DHT22;57451;52.496;13.456;2022-07-17T03:00:30;14.10;54.70
70079;DHT22;57451;52.496;13.456;2022-07-17T03:02:56;14.00;55.60
70079;DHT22;57451;52.496;13.456;2022-07-17T03:05:24;14.00;56.00
70079;DHT22;57451;52.496;13.456;2022-07-17T03:07:50;13.90;56.00
70079;DHT22;57451;52.496;13.456;2022-07-17T03:10:16;13.90;56.40
70079;DHT22;57451;52.496;13.456;2022-07-17T03:12:42;13.90;55.50
70079;DHT22;57451;52.496;13.456;2022-07-17T03:15:10;13.90;55.60
70079;DHT22;57451;52.496;13.456;2022-07-17T03:17:38;13.90;55.20
70079;DHT22;57451;52.496;13.456;2022-07-17T03:20:05;13.80;55.30
70079;DHT22;57451;52.496;13.456;2022-07-17T03:22:33;13.80;55.80
70079;DHT22;57451;52.496;13.456;2022-07-17T03:24:59;13.80;56.20
70079;DHT22;57451;52.496;13.456;2022-07-17T03:27:25;13.80;56.40
70079;DHT22;57451;52.496;13.456;2022-07-17T03:29:52;13.80;56.00
70079;DHT22;57451;52.496;13.456;2022-07-17T03:32:18;13.80;56.50
70079;DHT22;57451;52.496;13.456;2022-07-17T03:34:44;13.80;56.40
70079;DHT22;57451;52.496;13.456;2022-07-17T03:37:11;13.80;56.40
70079;DHT22;57451;52.496;13.456;2022-07-17T03:39:38;13.70;56.30
70079;DHT22;57451;52.496;13.456;2022-07-17T03:42:04;13.70;55.50
70079;DHT22;57451;52.496;13.456;2022-07-17T03:44:31;13.70;56.30
70079;DHT22;57451;52.496;13.456;2022-07-17T03:46:57;13.70;56.20
70079;DHT22;57451;52.496;13.456;2022-07-17T03:49:23;13.60;57.00
70079;DHT22;57451;52.496;13.456;2022-07-17T03:51:50;13.60;56.60
70079;DHT22;57451;52.496;13.456;2022-07-17T03:54:16;13.60;57.40
70079;DHT22;57451;52.496;13.456;2022-07-17T03:56:44;13.60;57.10
70079;DHT22;57451;52.496;13.456;2022-07-17T03:59:10;13.60;56.90
70079;DHT22;57451;52.496;13.456;2022-07-17T04:01:36;13.60;57.70
70079;DHT22;57451;52.496;13.456;2022-07-17T04:04:03;13.60;57.00
70079;DHT22;57451;52.496;13.456;2022-07-17T04:06:29;13.60;57.70
70079;DHT22;57451;52.496;13.456;2022-07-17T04:08:55;13.60;57.30
70079;DHT22;57451;52.496;13.456;2022-07-17T04:11:21;13.60;57.20
70079;DHT22;57451;52.496;13.456;2022-07-17T04:13:49;13.60;58.20
70079;DHT22;57451;52.496;13.456;2022-07-17T04:16:15;13.50;58.10
70079;DHT22;57451;52.496;13.456;2022-07-17T04:18:41;13.60;58.30
70079;DHT22;57451;52.496;13.456;2022-07-17T04:21:08;13.60;59.00
70079;DHT22;57451;52.496;13.456;2022-07-17T04:23:36;13.50;59.00
70079;DHT22;57451;52.496;13.456;2022-07-17T04:26:03;13.50;58.40
70079;DHT22;57451;52.496;13.456;2022-07-17T04:28:29;13.60;58.60
70079;DHT22;57451;52.496;13.456;2022-07-17T04:30:57;13.60;58.80
70079;DHT22;57451;52.496;13.456;2022-07-17T04:33:23;13.60;59.10
70079;DHT22;57451;52.496;13.456;2022-07-17T04:35:49;13.60;59.30
70079;DHT22;57451;52.496;13.456;2022-07-17T04:38:15;13.60;59.60
70079;DHT22;57451;52.496;13.456;2022-07-17T04:40:41;13.60;59.50
70079;DHT22;57451;52.496;13.456;2022-07-17T04:43:07;13.60;59.10
70079;DHT22;57451;52.496;13.456;2022-07-17T04:45:34;13.70;58.60
70079;DHT22;57451;52.496;13.456;2022-07-17T04:48:01;13.70;58.70
70079;DHT22;57451;52.496;13.456;2022-07-17T04:50:28;13.80;59.50
70079;DHT22;57451;52.496;13.456;2022-07-17T04:52:54;13.80;59.10
70079;DHT22;57451;52.496;13.456;2022-07-17T04:55:20;13.80;59.00
70079;DHT22;57451;52.496;13.456;2022-07-17T04:57:46;13.90;58.90
70079;DHT22;57451;52.496;13.456;2022-07-17T05:00:13;13.90;59.00
70079;DHT22;57451;52.496;13.456;2022-07-17T05:02:41;14.00;59.20
70079;DHT22;57451;52.496;13.456;2022-07-17T05:05:08;14.00;59.50
70079;DHT22;57451;52.496;13.456;2022-07-17T05:07:34;14.00;59.50
70079;DHT22;57451;52.496;13.456;2022-07-17T05:10:01;14.00;58.80
70079;DHT22;57451;52.496;13.456;2022-07-17T05:12:27;14.10;59.00
70079;DHT22;57451;52.496;13.456;2022-07-17T05:14:54;14.10;58.90
70079;DHT22;57451;52.496;13.456;2022-07-17T05:17:20;14.10;59.20
70079;DHT22;57451;52.496;13.456;2022-07-17T05:19:46;14.20;58.40
70079;DHT22;57451;52.496;13.456;2022-07-17T05:22:13;14.20;58.70
70079;DHT22;57451;52.496;13.456;2022-07-17T05:24:40;14.30;58.60
70079;DHT22;57451;52.496;13.456;2022-07-17T05:27:06;14.30;58.60
70079;DHT22;57451;52.496;13.456;2022-07-17T05:29:32;14.30;58.50
70079;DHT22;57451;52.496;13.456;2022-07-17T05:31:58;14.30;58.70
70079;DHT22;57451;52.496;13.456;2022-07-17T05:34:24;14.30;58.50
70079;DHT22;57451;52.496;13.456;2022-07-17T05:36:50;14.30;58.20
70079;DHT22;57451;52.496;13.456;2022-07-17T05:39:18;14.40;58.20
70079;DHT22;57451;52.496;13.456;2022-07-17T05:41:44;14.50;58.30
70079;DHT22;57451;52.496;13.456;2022-07-17T05:44:10;14.50;58.60
70079;DHT22;57451;52.496;13.456;2022-07-17T05:46:36;14.60;58.10
70079;DHT22;57451;52.496;13.456;2022-07-17T05:49:02;14.70;58.50
70079;DHT22;57451;52.496;13.456;2022-07-17T05:51:29;14.70;58.00
70079;DHT22;57451;52.496;13.456;2022-07-17T05:53:55;14.80;58.00
70079;DHT22;57451;52.496;13.456;2022-07-17T05:56:22;14.90;57.60
70079;DHT22;57451;52.496;13.456;2022-07-17T05:58:49;15.10;57.30
70079;DHT22;57451;52.496;13.456;2022-07-17T06:01:15;15.20;57.20
70079;DHT22;57451;52.496;13.456;2022-07-17T06:03:42;15.30;56.70
70079;DHT22;57451;52.496;13.456;2022-07-17T06:06:08;15.40;56.30
70079;DHT22;57451;52.496;13.456;2022-07-17T06:08:34;15.50;56.00
70079;DHT22;57451;52.496;13.456;2022-07-17T06:11:00;15.50;55.20
70079;DHT22;57451;52.496;13.456;2022-07-17T06:13:27;15.60;55.00
70079;DHT22;57451;52.496;13.456;2022-07-17T06:15:54;15.70;54.80
70079;DHT22;57451;52.496;13.456;2022-07-17T06:18:22;15.70;54.60
70079;DHT22;57451;52.496;13.456;2022-07-17T06:20:48;15.70;53.90
70079;DHT22;57451;52.496;13.456;2022-07-17T06:23:14;15.70;53.60
70079;DHT22;57451;52.496;13.456;2022-07-17T06:25:40;15.70;53.90
70079;DHT22;57451;52.496;13.456;2022-07-17T06:28:06;15.80;54.10
70079;DHT22;57451;52.496;13.456;2022-07-17T06:30:34;15.90;53.60
70079;DHT22;57451;52.496;13.456;2022-07-17T06:33:00;16.00;53.60
70079;DHT22;57451;52.496;13.456;2022-07-17T06:35:26;16.00;52.80
70079;DHT22;57451;52.496;13.456;2022-07-17T06:37:52;16.10;53.00
70079;DHT22;57451;52.496;13.456;2022-07-17T06:40:18;16.10;52.90
70079;DHT22;57451;52.496;13.456;2022-07-17T06:42:44;16.20;52.60
70079;DHT22;57451;52.496;13.456;2022-07-17T06:45:12;16.30;52.30
70079;DHT22;57451;52.496;13.456;2022-07-17T06:47:39;16.40;52.30
70079;DHT22;57451;52.496;13.456;2022-07-17T06:50:06;16.50;52.40
70079;DHT22;57451;52.496;13.456;2022-07-17T06:52:33;16.60;51.90
70079;DHT22;57451;52.496;13.456;2022-07-17T06:55:00;16.70;51.60
70079;DHT22;57451;52.496;13.456;2022-07-17T06:57:26;16.80;51.60
70079;DHT22;57451;52.496;13.456;2022-07-17T06:59:52;16.90;51.60
70079;DHT22;57451;52.496;13.456;2022-07-17T07:02:18;16.80;50.70
70079;DHT22;57451;52.496;13.456;2022-07-17T07:04:46;16.70;51.50
70079;DHT22;57451;52.496;13.456;2022-07-17T07:07:12;16.80;51.00
70079;DHT22;57451;52.496;13.456;2022-07-17T07:09:38;16.90;50.90
70079;DHT22;57451;52.496;13.456;2022-07-17T07:12:04;16.80;50.80
70079;DHT22;57451;52.496;13.456;2022-07-17T07:14:30;16.80;51.50
70079;DHT22;57451;52.496;13.456;2022-07-17T07:16:56;16.90;51.20
70079;DHT22;57451;52.496;13.456;2022-07-17T07:19:23;16.90;51.30
70079;DHT22;57451;52.496;13.456;2022-07-17T07:21:50;16.90;51.40
70079;DHT22;57451;52.496;13.456;2022-07-17T07:24:16;17.00;51.00
70079;DHT22;57451;52.496;13.456;2022-07-17T07:26:44;17.00;51.00
70079;DHT22;57451;52.496;13.456;2022-07-17T07:29:13;17.00;51.20
70079;DHT22;57451;52.496;13.456;2022-07-17T07:31:39;17.00;50.90
70079;DHT22;57451;52.496;13.456;2022-07-17T07:34:05;17.10;51.00
70079;DHT22;57451;52.496;13.456;2022-07-17T07:36:32;17.10;50.60
70079;DHT22;57451;52.496;13.456;2022-07-17T07:38:59;17.00;50.80
70079;DHT22;57451;52.496;13.456;2022-07-17T07:41:26;17.00;50.60
70079;DHT22;57451;52.496;13.456;2022-07-17T07:44:00;17.00;51.10
70079;DHT22;57451;52.496;13.456;2022-07-17T07:46:26;17.00;50.70
70079;DHT22;57451;52.496;13.456;2022-07-17T07:48:54;17.10;51.10
70079;DHT22;57451;52.496;13.456;2022-07-17T07:51:20;17.20;50.70
70079;DHT22;57451;52.496;13.456;2022-07-17T07:53:47;17.20;51.00
70079;DHT22;57451;52.496;13.456;2022-07-17T07:56:14;17.20;50.70
70079;DHT22;57451;52.496;13.456;2022-07-17T07:58:41;17.30;50.60
70079;DHT22;57451;52.496;13.456;2022-07-17T08:01:07;17.30;50.70
70079;DHT22;57451;52.496;13.456;2022-07-17T08:03:33;17.30;50.30
70079;DHT22;57451;52.496;13.456;2022-07-17T08:06:00;17.40;50.50
70079;DHT22;57451;52.496;13.456;2022-07-17T08:08:26;17.40;50.60
70079;DHT22;57451;52.496;13.456;2022-07-17T08:10:53;17.30;50.30
70079;DHT22;57451;52.496;13.456;2022-07-17T08:13:21;17.30;50.80
70079;DHT22;57451;52.496;13.456;2022-07-17T08:15:47;17.40;50.40
70079;DHT22;57451;52.496;13.456;2022-07-17T08:18:13;17.40;50.80
70079;DHT22;57451;52.496;13.456;2022-07-17T08:20:39;17.40;50.20
70079;DHT22;57451;52.496;13.456;2022-07-17T08:23:05;17.30;50.60
70079;DHT22;57451;52.496;13.456;2022-07-17T08:25:32;17.30;50.60
70079;DHT22;57451;52.496;13.456;2022-07-17T08:27:59;17.30;50.80
70079;DHT22;57451;52.496;13.456;2022-07-17T08:30:27;17.30;50.50
70079;DHT22;57451;52.496;13.456;2022-07-17T08:32:53;17.40;50.80
70079;DHT22;57451;52.496;13.456;2022-07-17T08:35:20;17.40;50.40
70079;DHT22;57451;52.496;13.456;2022-07-17T08:37:47;17.40;50.80
70079;DHT22;57451;52.496;13.456;2022-07-17T08:40:18;17.40;50.90
70079;DHT22;57451;52.496;13.456;2022-07-17T08:42:47;17.40;51.20
70079;DHT22;57451;52.496;13.456;2022-07-17T08:45:16;17.50;51.40
70079;DHT22;57451;52.496;13.456;2022-07-17T08:47:45;17.60;50.90
70079;DHT22;57451;52.496;13.456;2022-07-17T08:50:12;17.70;50.60
70079;DHT22;57451;52.496;13.456;2022-07-17T08:52:41;17.80;50.30
70079;DHT22;57451;52.496;13.456;2022-07-17T08:55:09;17.80;50.20
70079;DHT22;57451;52.496;13.456;2022-07-17T08:57:39;17.90;50.60
70079;DHT22;57451;52.496;13.456;2022-07-17T09:00:08;17.90;49.70
70079;DHT22;57451;52.496;13.456;2022-07-17T09:02:36;18.00;49.80
70079;DHT22;57451;52.496;13.456;2022-07-17T09:05:06;18.10;50.00
70079;DHT22;57451;52.496;13.456;2022-07-17T09:08:00;18.10;48.80
70079;DHT22;57451;52.496;13.456;2022-07-17T09:10:44;18.10;49.30
70079;DHT22;57451;52.496;13.456;2022-07-17T09:13:27;18.20;49.30
70079;DHT22;57451;52.496;13.456;2022-07-17T09:15:58;18.40;49.30
70079;DHT22;57451;52.496;13.456;2022-07-17T09:18:28;18.40;49.30
70079;DHT22;57451;52.496;13.456;2022-07-17T09:21:17;18.50;49.40
70079;DHT22;57451;52.496;13.456;2022-07-17T09:23:57;18.70;48.40
70079;DHT22;57451;52.496;13.456;2022-07-17T09:26:25;18.80;49.20
70079;DHT22;57451;52.496;13.456;2022-07-17T09:29:09;18.90;49.10
70079;DHT22;57451;52.496;13.456;2022-07-17T09:31:44;19.10;48.60
70079;DHT22;57451;52.496;13.456;2022-07-17T09:34:56;19.20;47.80
70079;DHT22;57451;52.496;13.456;2022-07-17T09:37:52;19.30;48.40
70079;DHT22;57451;52.496;13.456;2022-07-17T09:41:04;19.50;48.20
70079;DHT22;57451;52.496;13.456;2022-07-17T09:43:46;19.60;47.80
70079;DHT22;57451;52.496;13.456;2022-07-17T09:46:42;19.70;47.80
70079;DHT22;57451;52.496;13.456;2022-07-17T09:53:24;19.80;46.60
70079;DHT22;57451;52.496;13.456;2022-07-17T09:56:01;19.90;46.80
70079;DHT22;57451;52.496;13.456;2022-07-17T09:59:11;20.00;46.90
70079;DHT22;57451;52.496;13.456;2022-07-17T10:02:35;19.90;46.10
70079;DHT22;57451;52.496;13.456;2022-07-17T10:05:06;19.90;45.70
70079;DHT22;57451;52.496;13.456;2022-07-17T10:07:34;19.70;45.60
70079;DHT22;57451;52.496;13.456;2022-07-17T10:10:04;19.70;46.40
70079;DHT22;57451;52.496;13.456;2022-07-17T10:12:30;19.70;46.50
70079;DHT22;57451;52.496;13.456;2022-07-17T10:14:57;19.80;46.40
70079;DHT22;57451;52.496;13.456;2022-07-17T10:17:23;19.80;46.30
70079;DHT22;57451;52.496;13.456;2022-07-17T10:19:53;19.90;47.00
70079;DHT22;57451;52.496;13.456;2022-07-17T10:22:41;19.90;45.80
70079;DHT22;57451;52.496;13.456;2022-07-17T10:25:13;19.80;47.00
70079;DHT22;57451;52.496;13.456;2022-07-17T10:27:52;19.80;46.00
70079;DHT22;57451;52.496;13.456;2022-07-17T10:30:26;19.90;45.00
70079;DHT22;57451;52.496;13.456;2022-07-17T10:32:55;19.90;45.50
70079;DHT22;57451;52.496;13.456;2022-07-17T10:35:21;20.00;46.30
70079;DHT22;57451;52.496;13.456;2022-07-17T10:37:48;20.10;46.40
70079;DHT22;57451;52.496;13.456;2022-07-17T10:40:18;20.10;45.40
70079;DHT22;57451;52.496;13.456;2022-07-17T10:42:56;20.20;45.70
70079;DHT22;57451;52.496;13.456;2022-07-17T10:45:25;20.30;45.50
70079;DHT22;57451;52.496;13.456;2022-07-17T10:47:58;20.30;45.70
70079;DHT22;57451;52.496;13.456;2022-07-17T10:50:27;20.40;45.30
70079;DHT22;57451;52.496;13.456;2022-07-17T10:52:59;20.50;46.20
70079;DHT22;57451;52.496;13.456;2022-07-17T10:55:28;20.60;46.10
70079;DHT22;57451;52.496;13.456;2022-07-17T10:57:54;20.80;44.60
70079;DHT22;57451;52.496;13.456;2022-07-17T11:00:21;20.80;43.80
70079;DHT22;57451;52.496;13.456;2022-07-17T11:02:47;20.80;44.10
70079;DHT22;57451;52.496;13.456;2022-07-17T11:05:14;20.90;44.30
70079;DHT22;57451;52.496;13.456;2022-07-17T11:07:54;21.00;44.20
70079;DHT22;57451;52.496;13.456;2022-07-17T11:10:21;21.10;45.10
70079;DHT22;57451;52.496;13.456;2022-07-17T11:12:49;21.20;44.30
70079;DHT22;57451;52.496;13.456;2022-07-17T11:15:15;21.30;44.30
70079;DHT22;57451;52.496;13.456;2022-07-17T11:17:46;21.40;43.80
70079;DHT22;57451;52.496;13.456;2022-07-17T11:20:13;21.40;42.40
70079;DHT22;57451;52.496;13.456;2022-07-17T11:22:39;21.30;42.70
70079;DHT22;57451;52.496;13.456;2022-07-17T11:25:07;21.40;42.80
70079;DHT22;57451;52.496;13.456;2022-07-17T11:27:34;21.40;43.00
70079;DHT22;57451;52.496;13.456;2022-07-17T11:30:04;21.50;43.30
70079;DHT22;57451;52.496;13.456;2022-07-17T11:32:35;21.60;43.00
70079;DHT22;57451;52.496;13.456;2022-07-17T11:35:03;21.70;42.40
70079;DHT22;57451;52.496;13.456;2022-07-17T11:37:39;21.70;42.80
70079;DHT22;57451;52.496;13.456;2022-07-17T11:40:06;21.80;42.20
70079;DHT22;57451;52.496;13.456;2022-07-17T11:42:32;21.90;42.70
70079;DHT22;57451;52.496;13.456;2022-07-17T11:44:59;22.00;42.90
70079;DHT22;57451;52.496;13.456;2022-07-17T11:47:27;22.10;42.90
70079;DHT22;57451;52.496;13.456;2022-07-17T11:50:04;22.20;42.70
70079;DHT22;57451;52.496;13.456;2022-07-17T11:52:40;22.30;43.10
70079;DHT22;57451;52.496;13.456;2022-07-17T11:55:07;22.40;42.60
70079;DHT22;57451;52.496;13.456;2022-07-17T11:57:42;22.50;42.50
70079;DHT22;57451;52.496;13.456;2022-07-17T12:00:10;22.60;41.90
70079;DHT22;57451;52.496;13.456;2022-07-17T12:02:38;22.70;41.50
70079;DHT22;57451;52.496;13.456;2022-07-17T12:05:05;22.80;41.20
70079;DHT22;57451;52.496;13.456;2022-07-17T12:07:40;22.80;41.70
70079;DHT22;57451;52.496;13.456;2022-07-17T12:10:11;22.90;41.10
70079;DHT22;57451;52.496;13.456;2022-07-17T12:12:38;22.90;41.50
70079;DHT22;57451;52.496;13.456;2022-07-17T12:15:05;23.00;40.60
70079;DHT22;57451;52.496;13.456;2022-07-17T12:17:39;23.10;40.40
70079;DHT22;57451;52.496;13.456;2022-07-17T12:20:07;23.20;39.90
70079;DHT22;57451;52.496;13.456;2022-07-17T12:22:42;23.20;39.90
70079;DHT22;57451;52.496;13.456;2022-07-17T12:25:08;23.20;40.00
70079;DHT22;57451;52.496;13.456;2022-07-17T12:27:34;23.30;39.10
70079;DHT22;57451;52.496;13.456;2022-07-17T12:30:00;23.30;39.20
70079;DHT22;57451;52.496;13.456;2022-07-17T12:32:26;23.40;39.40
70079;DHT22;57451;52.496;13.456;2022-07-17T12:34:54;23.40;39.30
70079;DHT22;57451;52.496;13.456;2022-07-17T12:37:21;23.50;39.10
70079;DHT22;57451;52.496;13.456;2022-07-17T12:39:49;23.50;39.80
70079;DHT22;57451;52.496;13.456;2022-07-17T12:42:16;23.50;39.20
70079;DHT22;57451;52.496;13.456;2022-07-17T12:44:42;23.60;37.60
70079;DHT22;57451;52.496;13.456;2022-07-17T12:47:09;23.60;39.60
70079;DHT22;57451;52.496;13.456;2022-07-17T12:49:35;23.60;38.70
70079;DHT22;57451;52.496;13.456;2022-07-17T12:52:03;23.70;38.90
70079;DHT22;57451;52.496;13.456;2022-07-17T12:54:29;23.80;39.30
70079;DHT22;57451;52.496;13.456;2022-07-17T12:56:57;23.80;39.30
70079;DHT22;57451;52.496;13.456;2022-07-17T12:59:23;23.90;39.50
70079;DHT22;57451;52.496;13.456;2022-07-17T13:01:49;24.00;39.20
70079;DHT22;57451;52.496;13.456;2022-07-17T13:04:16;24.00;39.50
70079;DHT22;57451;52.496;13.456;2022-07-17T13:06:42;24.10;38.60
70079;DHT22;57451;52.496;13.456;2022-07-17T13:09:09;24.10;39.00
70079;DHT22;57451;52.496;13.456;2022-07-17T13:11:36;24.20;37.70
70079;DHT22;57451;52.496;13.456;2022-07-17T13:14:02;24.20;38.20
70079;DHT22;57451;52.496;13.456;2022-07-17T13:16:28;24.30;38.60
70079;DHT22;57451;52.496;13.456;2022-07-17T13:18:54;24.40;37.90
70079;DHT22;57451;52.496;13.456;2022-07-17T13:21:20;24.40;38.00
70079;DHT22;57451;52.496;13.456;2022-07-17T13:23:47;24.50;37.10
70079;DHT22;57451;52.496;13.456;2022-07-17T13:26:15;24.50;38.00
70079;DHT22;57451;52.496;13.456;2022-07-17T13:28:41;24.50;37.40
70079;DHT22;57451;52.496;13.456;2022-07-17T13:31:07;24.60;38.10
70079;DHT22;57451;52.496;13.456;2022-07-17T13:33:34;24.60;37.70
70079;DHT22;57451;52.496;13.456;2022-07-17T13:36:00;24.70;37.00
70079;DHT22;57451;52.496;13.456;2022-07-17T13:38:27;24.70;37.60
70079;DHT22;57451;52.496;13.456;2022-07-17T13:40:53;24.70;37.80
70079;DHT22;57451;52.496;13.456;2022-07-17T13:43:20;24.80;38.10
70079;DHT22;57451;52.496;13.456;2022-07-17T13:45:47;24.80;37.20
70079;DHT22;57451;52.496;13.456;2022-07-17T13:48:13;24.90;37.20
70079;DHT22;57451;52.496;13.456;2022-07-17T13:50:40;25.00;37.50
70079;DHT22;57451;52.496;13.456;2022-07-17T13:53:07;25.00;36.80
70079;DHT22;57451;52.496;13.456;2022-07-17T13:55:33;25.00;38.10
70079;DHT22;57451;52.496;13.456;2022-07-17T13:57:59;25.10;36.70
70079;DHT22;57451;52.496;13.456;2022-07-17T14:00:27;25.10;36.60
70079;DHT22;57451;52.496;13.456;2022-07-17T14:02:55;25.20;37.30
70079;DHT22;57451;52.496;13.456;2022-07-17T14:05:21;25.30;36.30
70079;DHT22;57451;52.496;13.456;2022-07-17T14:07:47;25.30;36.80
70079;DHT22;57451;52.496;13.456;2022-07-17T14:10:13;25.40;36.70
70079;DHT22;57451;52.496;13.456;2022-07-17T14:12:39;25.40;36.60
70079;DHT22;57451;52.496;13.456;2022-07-17T14:15:06;25.40;36.50
70079;DHT22;57451;52.496;13.456;2022-07-17T14:17:34;25.50;35.50
70079;DHT22;57451;52.496;13.456;2022-07-17T14:20:00;25.50;36.60
70079;DHT22;57451;52.496;13.456;2022-07-17T14:22:26;25.50;36.50
70079;DHT22;57451;52.496;13.456;2022-07-17T14:24:52;25.60;37.10
70079;DHT22;57451;52.496;13.456;2022-07-17T14:27:18;25.70;35.90
70079;DHT22;57451;52.496;13.456;2022-07-17T14:29:45;25.70;36.60
70079;DHT22;57451;52.496;13.456;2022-07-17T14:32:11;25.70;36.50
70079;DHT22;57451;52.496;13.456;2022-07-17T14:34:39;25.70;36.10
70079;DHT22;57451;52.496;13.456;2022-07-17T14:37:05;25.70;35.80
70079;DHT22;57451;52.496;13.456;2022-07-17T14:39:34;25.80;36.00
70079;DHT22;57451;52.496;13.456;2022-07-17T14:42:01;25.80;36.00
70079;DHT22;57451;52.496;13.456;2022-07-17T14:44:27;25.80;35.90
70079;DHT22;57451;52.496;13.456;2022-07-17T14:46:53;25.90;36.00
70079;DHT22;57451;52.496;13.456;2022-07-17T14:49:19;25.90;35.80
70079;DHT22;57451;52.496;13.456;2022-07-17T14:51:47;26.00;34.40
70079;DHT22;57451;52.496;13.456;2022-07-17T14:54:13;25.90;34.90
70079;DHT22;57451;52.496;13.456;2022-07-17T14:56:39;26.00;35.30
70079;DHT22;57451;52.496;13.456;2022-07-17T14:59:05;26.00;34.10
70079;DHT22;57451;52.496;13.456;2022-07-17T15:01:31;25.90;35.50
70079;DHT22;57451;52.496;13.456;2022-07-17T15:03:59;25.90;35.60
70079;DHT22;57451;52.496;13.456;2022-07-17T15:06:25;26.00;35.40
70079;DHT22;57451;52.496;13.456;2022-07-17T15:08:53;25.90;35.10
70079;DHT22;57451;52.496;13.456;2022-07-17T15:11:19;26.00;35.10
70079;DHT22;57451;52.496;13.456;2022-07-17T15:13:45;26.00;35.50
70079;DHT22;57451;52.496;13.456;2022-07-17T15:16:11;26.10;36.20
70079;DHT22;57451;52.496;13.456;2022-07-17T15:18:37;26.10;35.90
70079;DHT22;57451;52.496;13.456;2022-07-17T15:21:03;26.00;35.10
70079;DHT22;57451;52.496;13.456;2022-07-17T15:23:29;26.00;35.10
70079;DHT22;57451;52.496;13.456;2022-07-17T15:25:57;26.00;34.70